Pagina principală
METAR-TAF:

METAR-TAF

Aeroporturi :

Honiara, Guadalcanal, Insulele Solomon

Latitudine: 09-25S, longitudine: 160-03E, elevație: 8 m

Observații meteo curente

Raportul a fost făcut în urmă cu 14 de minute, la 18:00 UTC
Vânt 2 kt de la Sud-vest
Temperatură 24°C
Umiditate 94%
Presiune 1010 hPa
Vizibilitate de 10 km sau mai mult
Nori puțini la o înălțime de 1500 picior
Nori împrăștiați la o înălțime de 2700 picior
burniță slabă

METAR: AGGH 051800Z 23002KT 9999 -DZ FEW015 SCT027 24/23 Q1010

Ora: 05:14 (18:14 UTC)

Prognoză

Raportul a fost făcut în urmă cu 49 de minute, la 17:25 UTC
Prognoză valabilă de la 05 ora 18 UTC la 06 ora 18 UTC
Vânt 10 kt de la Nord/Nord-est
Vizibilitate: 1008 m
Nori puțini la o înălțime de 1600 picior
Nori împrăștiați la o înălțime de 2800 picior

TAF: AGGH 051725Z 0518/0618 02010KT 9999 FEW016 SCT028 T 24 26 30 31 Q 1008 1010 1010 1008

Observații și prognoze meteo pentru peste 4.000 de aeroporturi (rapoarte METAR și TAF).

Stațiile disponibile sunt reprezentate pe hartă prin puncte galbene și roșii.

Țineți indicatorul mouse-ului pe punctul dorit pentru a vedea denumirea stației.

Apoi, faceți clic pentru a vedea observațiile și prognozele meteorologice.

Pentru a schimba harta: Pentru mărire, faceți clic pe butoanele verzi cu cruce neagră; pentru micșorare, pe butonul verde cu o liniuță; pentru hărți învecinate, pe săgețile verzi.


METAR-TAF: